Terminal Aerodrome Forecast
Issued by NWS

Home | Current Version | Previous Version | Graphics & Text | Print | Product List | Glossary On
Versions: 1 2 3 4 5 6 7 8 9 10 11 12 13 14 15 16 17
000
FTUS43 KMPX 191700
TAFRNH
TAF
KRNH 191738Z 1918/2018 20012G18KT P6SM SCT080 BKN250
     FM200000 18005KT P6SM SCT100 BKN200
     FM201200 18011KT P6SM SCT070 BKN200=

USA.gov is the U.S. government's official web portal to all federal, state and local government web resources and services.